sensor_id;sensor_type;location;lat;lon;timestamp;P1;durP1;ratioP1;P2;durP2;ratioP2
8885;SDS011;4479;51.162;13.906;2023-08-21T00:04:24;2.43;;;2.23;;
8885;SDS011;4479;51.162;13.906;2023-08-21T00:14:29;2.53;;;2.33;;
8885;SDS011;4479;51.162;13.906;2023-08-21T00:24:31;3.17;;;2.30;;
8885;SDS011;4479;51.162;13.906;2023-08-21T00:34:35;2.53;;;2.33;;
8885;SDS011;4479;51.162;13.906;2023-08-21T00:44:38;2.60;;;2.40;;
8885;SDS011;4479;51.162;13.906;2023-08-21T00:54:43;2.60;;;2.40;;
8885;SDS011;4479;51.162;13.906;2023-08-21T01:04:45;3.60;;;2.33;;
8885;SDS011;4479;51.162;13.906;2023-08-21T01:14:51;2.17;;;2.00;;
8885;SDS011;4479;51.162;13.906;2023-08-21T01:25:06;2.30;;;2.10;;
8885;SDS011;4479;51.162;13.906;2023-08-21T01:35:10;2.57;;;2.13;;
8885;SDS011;4479;51.162;13.906;2023-08-21T01:45:15;4.07;;;2.03;;
8885;SDS011;4479;51.162;13.906;2023-08-21T01:55:18;2.13;;;1.93;;
8885;SDS011;4479;51.162;13.906;2023-08-21T02:05:33;3.40;;;3.10;;
8885;SDS011;4479;51.162;13.906;2023-08-21T02:16:44;3.20;;;2.37;;
8885;SDS011;4479;51.162;13.906;2023-08-21T02:26:48;2.70;;;2.30;;
8885;SDS011;4479;51.162;13.906;2023-08-21T02:36:51;4.30;;;2.50;;
8885;SDS011;4479;51.162;13.906;2023-08-21T02:46:55;2.30;;;2.10;;
8885;SDS011;4479;51.162;13.906;2023-08-21T02:56:57;2.40;;;2.20;;
8885;SDS011;4479;51.162;13.906;2023-08-21T03:07:01;5.47;;;2.60;;
8885;SDS011;4479;51.162;13.906;2023-08-21T03:17:05;2.50;;;2.30;;
8885;SDS011;4479;51.162;13.906;2023-08-21T03:27:09;3.10;;;2.67;;
8885;SDS011;4479;51.162;13.906;2023-08-21T03:37:12;2.67;;;2.47;;
8885;SDS011;4479;51.162;13.906;2023-08-21T03:47:16;2.93;;;2.63;;
8885;SDS011;4479;51.162;13.906;2023-08-21T03:57:27;3.10;;;2.80;;
8885;SDS011;4479;51.162;13.906;2023-08-21T04:07:31;2.83;;;2.53;;
8885;SDS011;4479;51.162;13.906;2023-08-21T04:17:34;2.87;;;2.67;;
8885;SDS011;4479;51.162;13.906;2023-08-21T04:27:38;3.37;;;3.00;;
8885;SDS011;4479;51.162;13.906;2023-08-21T04:37:42;5.40;;;2.97;;
8885;SDS011;4479;51.162;13.906;2023-08-21T04:47:50;5.60;;;3.10;;
8885;SDS011;4479;51.162;13.906;2023-08-21T04:57:52;3.30;;;3.00;;
8885;SDS011;4479;51.162;13.906;2023-08-21T05:07:58;3.57;;;3.27;;
8885;SDS011;4479;51.162;13.906;2023-08-21T05:18:01;4.70;;;3.73;;
8885;SDS011;4479;51.162;13.906;2023-08-21T05:28:07;3.13;;;2.80;;
8885;SDS011;4479;51.162;13.906;2023-08-21T05:38:09;3.40;;;3.10;;
8885;SDS011;4479;51.162;13.906;2023-08-21T05:48:14;5.00;;;3.17;;
8885;SDS011;4479;51.162;13.906;2023-08-21T05:58:18;3.57;;;3.27;;
8885;SDS011;4479;51.162;13.906;2023-08-21T06:08:22;3.87;;;3.57;;
8885;SDS011;4479;51.162;13.906;2023-08-21T06:18:25;4.50;;;4.07;;
8885;SDS011;4479;51.162;13.906;2023-08-21T06:38:38;7.43;;;5.83;;
8885;SDS011;4479;51.162;13.906;2023-08-21T06:48:41;5.60;;;5.20;;
8885;SDS011;4479;51.162;13.906;2023-08-21T06:58:45;6.63;;;6.03;;
8885;SDS011;4479;51.162;13.906;2023-08-21T07:08:48;7.10;;;6.50;;
8885;SDS011;4479;51.162;13.906;2023-08-21T07:18:52;6.27;;;5.67;;
8885;SDS011;4479;51.162;13.906;2023-08-21T07:28:54;6.27;;;5.77;;
8885;SDS011;4479;51.162;13.906;2023-08-21T07:38:57;6.33;;;5.83;;
8885;SDS011;4479;51.162;13.906;2023-08-21T07:49:00;6.20;;;5.60;;
8885;SDS011;4479;51.162;13.906;2023-08-21T07:59:08;6.23;;;5.67;;
8885;SDS011;4479;51.162;13.906;2023-08-21T08:09:10;5.37;;;4.97;;
8885;SDS011;4479;51.162;13.906;2023-08-21T08:19:14;7.23;;;6.03;;
8885;SDS011;4479;51.162;13.906;2023-08-21T08:29:16;5.93;;;5.43;;
8885;SDS011;4479;51.162;13.906;2023-08-21T08:39:20;8.43;;;7.23;;
8885;SDS011;4479;51.162;13.906;2023-08-21T08:49:23;6.97;;;6.13;;
8885;SDS011;4479;51.162;13.906;2023-08-21T08:59:28;6.53;;;6.03;;
8885;SDS011;4479;51.162;13.906;2023-08-21T09:09:39;6.27;;;5.43;;
8885;SDS011;4479;51.162;13.906;2023-08-21T09:19:43;5.40;;;4.90;;
8885;SDS011;4479;51.162;13.906;2023-08-21T09:29:45;6.60;;;5.77;;
8885;SDS011;4479;51.162;13.906;2023-08-21T09:39:50;5.83;;;5.33;;
8885;SDS011;4479;51.162;13.906;2023-08-21T09:49:52;6.00;;;5.50;;
8885;SDS011;4479;51.162;13.906;2023-08-21T10:00:07;5.47;;;5.00;;
8885;SDS011;4479;51.162;13.906;2023-08-21T10:10:15;6.73;;;6.23;;
8885;SDS011;4479;51.162;13.906;2023-08-21T10:20:21;6.87;;;6.27;;
8885;SDS011;4479;51.162;13.906;2023-08-21T10:30:26;6.40;;;5.90;;
8885;SDS011;4479;51.162;13.906;2023-08-21T10:40:33;7.20;;;6.50;;
8885;SDS011;4479;51.162;13.906;2023-08-21T10:50:36;5.60;;;5.10;;
8885;SDS011;4479;51.162;13.906;2023-08-21T11:00:40;7.20;;;6.60;;
8885;SDS011;4479;51.162;13.906;2023-08-21T11:10:42;6.03;;;5.53;;
8885;SDS011;4479;51.162;13.906;2023-08-21T11:20:46;5.77;;;5.27;;
8885;SDS011;4479;51.162;13.906;2023-08-21T11:30:49;5.50;;;5.10;;
8885;SDS011;4479;51.162;13.906;2023-08-21T11:40:55;5.40;;;5.00;;
8885;SDS011;4479;51.162;13.906;2023-08-21T11:51:00;4.40;;;3.97;;
8885;SDS011;4479;51.162;13.906;2023-08-21T12:01:04;5.23;;;4.73;;
8885;SDS011;4479;51.162;13.906;2023-08-21T12:11:07;4.97;;;4.57;;
8885;SDS011;4479;51.162;13.906;2023-08-21T12:21:11;6.23;;;5.27;;
8885;SDS011;4479;51.162;13.906;2023-08-21T12:31:14;5.40;;;4.40;;
8885;SDS011;4479;51.162;13.906;2023-08-21T12:41:18;5.27;;;4.73;;
8885;SDS011;4479;51.162;13.906;2023-08-21T12:51:20;6.67;;;5.90;;
8885;SDS011;4479;51.162;13.906;2023-08-21T13:01:24;5.50;;;4.53;;
8885;SDS011;4479;51.162;13.906;2023-08-21T13:11:28;4.70;;;4.30;;
8885;SDS011;4479;51.162;13.906;2023-08-21T13:21:32;5.50;;;5.03;;
8885;SDS011;4479;51.162;13.906;2023-08-21T13:31:34;5.30;;;4.80;;
8885;SDS011;4479;51.162;13.906;2023-08-21T13:41:38;4.77;;;4.40;;
8885;SDS011;4479;51.162;13.906;2023-08-21T13:51:41;4.90;;;4.50;;
8885;SDS011;4479;51.162;13.906;2023-08-21T14:01:45;6.23;;;5.73;;
8885;SDS011;4479;51.162;13.906;2023-08-21T14:11:47;5.97;;;5.47;;
8885;SDS011;4479;51.162;13.906;2023-08-21T14:21:51;6.90;;;5.37;;
8885;SDS011;4479;51.162;13.906;2023-08-21T14:31:53;6.13;;;5.53;;
8885;SDS011;4479;51.162;13.906;2023-08-21T14:41:58;5.53;;;5.03;;
8885;SDS011;4479;51.162;13.906;2023-08-21T14:52:01;5.60;;;5.20;;
8885;SDS011;4479;51.162;13.906;2023-08-21T15:02:05;5.53;;;5.03;;
8885;SDS011;4479;51.162;13.906;2023-08-21T15:12:08;5.97;;;5.13;;
8885;SDS011;4479;51.162;13.906;2023-08-21T15:22:11;5.30;;;4.83;;
8885;SDS011;4479;51.162;13.906;2023-08-21T15:32:13;5.00;;;4.60;;
8885;SDS011;4479;51.162;13.906;2023-08-21T15:42:17;5.20;;;4.67;;
8885;SDS011;4479;51.162;13.906;2023-08-21T15:52:20;5.07;;;4.57;;
8885;SDS011;4479;51.162;13.906;2023-08-21T16:02:24;5.20;;;4.70;;
8885;SDS011;4479;51.162;13.906;2023-08-21T16:12:26;4.77;;;4.27;;
8885;SDS011;4479;51.162;13.906;2023-08-21T16:22:30;5.33;;;3.97;;
8885;SDS011;4479;51.162;13.906;2023-08-21T16:32:32;4.17;;;3.87;;
8885;SDS011;4479;51.162;13.906;2023-08-21T16:42:36;3.70;;;3.40;;
8885;SDS011;4479;51.162;13.906;2023-08-21T16:52:38;4.43;;;4.03;;
8885;SDS011;4479;51.162;13.906;2023-08-21T17:02:42;3.87;;;3.47;;
8885;SDS011;4479;51.162;13.906;2023-08-21T17:12:44;4.33;;;3.00;;
8885;SDS011;4479;51.162;13.906;2023-08-21T17:22:48;3.73;;;3.40;;
8885;SDS011;4479;51.162;13.906;2023-08-21T17:32:50;4.10;;;3.77;;
8885;SDS011;4479;51.162;13.906;2023-08-21T17:42:54;4.20;;;3.90;;
8885;SDS011;4479;51.162;13.906;2023-08-21T17:52:56;4.33;;;3.93;;
8885;SDS011;4479;51.162;13.906;2023-08-21T18:03:04;3.87;;;3.33;;
8885;SDS011;4479;51.162;13.906;2023-08-21T18:13:06;4.27;;;3.23;;
8885;SDS011;4479;51.162;13.906;2023-08-21T18:23:10;4.50;;;3.20;;
8885;SDS011;4479;51.162;13.906;2023-08-21T18:33:12;3.90;;;3.50;;
8885;SDS011;4479;51.162;13.906;2023-08-21T18:43:17;3.93;;;3.53;;
8885;SDS011;4479;51.162;13.906;2023-08-21T18:53:20;3.50;;;3.20;;
8885;SDS011;4479;51.162;13.906;2023-08-21T19:03:24;5.23;;;3.40;;
8885;SDS011;4479;51.162;13.906;2023-08-21T19:13:26;3.37;;;3.07;;
8885;SDS011;4479;51.162;13.906;2023-08-21T19:23:31;3.33;;;3.03;;
8885;SDS011;4479;51.162;13.906;2023-08-21T19:33:34;4.17;;;3.40;;
8885;SDS011;4479;51.162;13.906;2023-08-21T19:43:41;3.67;;;2.90;;
8885;SDS011;4479;51.162;13.906;2023-08-21T19:53:44;3.50;;;3.20;;
8885;SDS011;4479;51.162;13.906;2023-08-21T20:03:48;4.57;;;3.23;;
8885;SDS011;4479;51.162;13.906;2023-08-21T20:13:52;3.43;;;3.13;;
8885;SDS011;4479;51.162;13.906;2023-08-21T20:23:56;3.77;;;3.30;;
8885;SDS011;4479;51.162;13.906;2023-08-21T20:33:59;4.47;;;3.33;;
8885;SDS011;4479;51.162;13.906;2023-08-21T20:44:03;3.80;;;3.50;;
8885;SDS011;4479;51.162;13.906;2023-08-21T20:54:06;3.87;;;3.57;;
8885;SDS011;4479;51.162;13.906;2023-08-21T21:04:09;5.07;;;4.23;;
8885;SDS011;4479;51.162;13.906;2023-08-21T21:14:13;4.43;;;4.03;;
8885;SDS011;4479;51.162;13.906;2023-08-21T21:24:17;4.80;;;3.17;;
8885;SDS011;4479;51.162;13.906;2023-08-21T21:34:19;4.37;;;3.97;;
8885;SDS011;4479;51.162;13.906;2023-08-21T21:44:23;4.43;;;3.93;;
8885;SDS011;4479;51.162;13.906;2023-08-21T21:54:26;4.33;;;3.93;;
8885;SDS011;4479;51.162;13.906;2023-08-21T22:04:30;4.57;;;4.17;;
8885;SDS011;4479;51.162;13.906;2023-08-21T22:14:32;4.53;;;4.13;;
8885;SDS011;4479;51.162;13.906;2023-08-21T22:24:36;5.33;;;4.43;;
8885;SDS011;4479;51.162;13.906;2023-08-21T22:34:38;4.70;;;4.17;;
8885;SDS011;4479;51.162;13.906;2023-08-21T22:44:42;4.60;;;4.20;;
8885;SDS011;4479;51.162;13.906;2023-08-21T22:54:44;4.17;;;3.87;;
8885;SDS011;4479;51.162;13.906;2023-08-21T23:04:48;5.17;;;4.73;;
8885;SDS011;4479;51.162;13.906;2023-08-21T23:14:50;6.63;;;4.43;;
8885;SDS011;4479;51.162;13.906;2023-08-21T23:24:54;5.10;;;4.60;;
8885;SDS011;4479;51.162;13.906;2023-08-21T23:34:56;5.07;;;4.57;;
8885;SDS011;4479;51.162;13.906;2023-08-21T23:45:00;5.47;;;5.07;;
8885;SDS011;4479;51.162;13.906;2023-08-21T23:55:04;5.87;;;5.37;;
